Nashville (BNA/KBNA)

Information

Location
Nashville, TN
Local Time
23:25 / 11:25 pm
GMT Time
05:25 / 5:25 am
Gates
Unassigned
No FAA reported delays
METAR KBNA 260453Z 28003KT 10SM CLR 02/M07 A3016 RMK AO2 SLP214 T00171072
TAF KBNA 252320Z 2600/2624 32010KT P6SM FEW040 FM260200 32004KT P6SM SKC FM261700 17007KT P6SM SCT150
  • No charts available